الصفحة الرئيسية
METAR-TAF:

METAR-TAF

مطار :

ساليرنو, إيطاليا

دائرة عرض: 40-37N, خط طول: 014-55E, ارتفاع: 40 متر

مراقبة الطقس الحالي

تاريخ ووقت الإصدار 3ساعات و 49 دقيقة قبل الساعة 14:50UTC
ريح 10 عقدة من الشرق
درجة الحرارة 11°درجة مئوية
الرطوبة 28%
ضغط 1015 hPa
الرؤية 10 كم أو أكثر
غيوم قليلة على ارتفاع 4000 قدم

METAR: LIRI 011450Z 09010KT 9999 FEW040 11/M07 Q1015

زمن: 20:39 (18:39 UTC)


TAF: مفقودة

أرصاد الطقس والتوقعات من أكثر من 4000 مطار (تقارير الطقس للمطار METAR والتنبؤ بالطقس بالمطارTAF).

المحطات المتاحة هي النقط الصفراء والحمراء على الخريطة.

حرك المؤشر فوق النقطة لمعرفة اسم المحطة.

ثم انقر لمعرفة أرصاد وتوقعات الطقس.

لتغيير الخارطة: اضغط على الأزرار الخضراء مع رمز الصليب الأسود للتكبير. على الزر الأخضر مع شرطة للتصغير، أو على الأسهم الخضراء للخرائط المجاورة.


METAR-TAF: